Time;durP1;ratioP1;P1;durP2;ratioP2;P2;SDS_P1;SDS_P2;PMS_P1;PMS_P2;Temp;Humidity;BMP_temperature;BMP_pressure;BME280_temperature;BME280_humidity;BME280_pressure;Samples;Min_cycle;Max_cycle;Signal;HPM_P1;HPM_P2
2023/03/21 00:39:48;;;;;;;36.03;21.58;;;;;;;8.48;100.00;100771.88;6195598;22;20482;-86
2023/03/21 00:42:15;;;;;;;43.22;27.25;;;;;;;8.58;100.00;100762.09;6217375;23;20017;-85
2023/03/21 00:44:41;;;;;;;47.75;30.15;;;;;;;8.63;100.00;100766.94;6190907;23;20455;-86
2023/03/21 04:47:14;;;;;;;38.05;22.73;;;;;;;7.20;100.00;100676.31;6182679;23;20337;-77
2023/03/21 05:34:29;;;;;;;45.38;26.02;;;;;;;6.85;100.00;100697.06;6236502;22;20016;-79
2023/03/21 05:48:15;;;;;;;39.30;23.60;;;;;;;7.94;100.00;100688.00;6267597;22;20042;-79
2023/03/21 05:54:09;;;;;;;43.33;22.38;;;;;;;8.30;100.00;100689.91;6236972;22;20027;-79
2023/03/21 06:00:22;;;;;;;38.03;22.20;;;;;;;8.46;100.00;100694.56;6243303;23;20015;-79
2023/03/21 06:03:31;;;;;;;37.45;22.27;;;;;;;7.94;100.00;100697.72;6182383;23;20028;-79
2023/03/21 06:14:28;;;;;;;42.50;22.10;;;;;;;7.92;100.00;100699.66;6233587;22;20025;-80
2023/03/21 06:18:13;;;;;;;42.35;24.27;;;;;;;8.72;100.00;100706.13;6242143;23;20016;-81
2023/03/21 06:21:58;;;;;;;41.70;22.23;;;;;;;9.65;100.00;100710.31;6128798;23;20006;-78
2023/03/21 06:25:29;;;;;;;34.72;21.33;;;;;;;9.88;100.00;100720.28;6065460;23;20013;-77
2023/03/21 06:29:19;;;;;;;40.47;20.98;;;;;;;9.80;100.00;100714.94;6001351;23;20008;-78
2023/03/21 06:32:25;;;;;;;39.10;22.10;;;;;;;10.62;100.00;100732.25;6089888;22;20009;-78
2023/03/21 06:35:23;;;;;;;32.28;20.15;;;;;;;10.54;100.00;100725.06;6227705;22;20971;-79
2023/03/21 06:38:37;;;;;;;34.67;23.05;;;;;;;11.01;100.00;100724.63;6153204;23;20021;-76
2023/03/21 06:41:07;;;;;;;33.40;22.45;;;;;;;10.86;100.00;100722.63;6185836;22;21028;-81
2023/03/21 06:53:02;;;;;;;36.47;20.77;;;;;;;12.53;100.00;100723.13;6264126;22;20020;-77
2023/03/21 07:43:37;;;;;;;38.53;21.58;;;;;;;16.12;100.00;100730.13;6152869;23;20074;-80
2023/03/21 08:47:18;;;;;;;44.90;29.98;;;;;;;20.39;73.95;100748.00;6245308;22;20023;-81
2023/03/21 09:03:09;;;;;;;39.00;28.67;;;;;;;20.79;67.10;100753.84;6260311;22;20023;-90
2023/03/21 09:05:39;;;;;;;46.28;28.52;;;;;;;20.45;68.39;100746.31;6239104;23;20016;-88
2023/03/21 09:08:05;;;;;;;41.75;27.77;;;;;;;20.48;66.84;100756.66;6265250;23;20016;-88
2023/03/21 09:10:31;;;;;;;41.30;27.65;;;;;;;20.78;64.97;100746.78;6238975;23;20016;-88
2023/03/21 09:12:57;;;;;;;40.25;27.40;;;;;;;21.22;65.21;100758.34;6216287;23;20474;-88
2023/03/21 09:15:24;;;;;;;37.30;26.58;;;;;;;20.37;65.11;100751.97;6238456;23;20054;-90
2023/03/21 09:17:51;;;;;;;42.28;27.95;;;;;;;20.72;67.45;100750.38;6264058;23;20008;-88
2023/03/21 09:20:19;;;;;;;38.83;26.63;;;;;;;21.51;59.89;100757.59;6234627;23;20012;-88
2023/03/21 09:22:46;;;;;;;43.63;28.58;;;;;;;20.57;63.72;100744.53;6260042;23;20004;-88
2023/03/21 09:25:14;;;;;;;40.40;27.10;;;;;;;20.76;64.54;100746.19;6233690;23;20020;-86
2023/03/21 09:27:46;;;;;;;41.22;27.45;;;;;;;20.88;63.73;100747.09;6238307;23;20012;-88
2023/03/21 09:30:17;;;;;;;43.83;29.48;;;;;;;20.50;66.23;100741.06;6232018;23;20173;-88
2023/03/21 09:32:48;;;;;;;42.83;28.73;;;;;;;20.30;67.73;100748.50;6257182;23;20012;-87
2023/03/21 09:35:16;;;;;;;39.42;28.15;;;;;;;20.38;69.52;100751.72;6260419;23;20097;-87
2023/03/21 09:37:43;;;;;;;47.83;29.83;;;;;;;20.68;68.58;100751.91;6264126;23;20012;-88
2023/03/21 09:40:29;;;;;;;43.17;29.73;;;;;;;20.53;69.54;100754.94;6262937;23;20038;-88
2023/03/21 09:43:06;;;;;;;47.95;30.92;;;;;;;20.91;68.37;100756.63;6211412;23;20020;-87
2023/03/21 09:45:33;;;;;;;45.58;30.10;;;;;;;21.91;63.43;100757.88;6229369;23;20004;-88
2023/03/21 09:48:06;;;;;;;45.58;31.13;;;;;;;21.15;66.95;100758.44;6254831;23;20018;-88
2023/03/21 09:50:36;;;;;;;50.45;32.80;;;;;;;20.46;70.48;100747.94;6250805;23;20008;-87
2023/03/21 09:53:11;;;;;;;49.45;32.20;;;;;;;21.31;65.64;100751.63;6249737;23;20331;-90
2023/03/21 09:55:39;;;;;;;44.28;29.65;;;;;;;21.83;64.83;100742.00;6196467;23;20016;-85
2023/03/21 09:58:28;;;;;;;52.17;30.88;;;;;;;21.58;64.11;100748.34;6250857;23;20001;-90
2023/03/21 10:01:28;;;;;;;48.30;31.05;;;;;;;21.38;64.96;100746.94;6221376;23;20012;-86
2023/03/21 10:03:55;;;;;;;54.40;31.83;;;;;;;22.24;60.85;100741.19;6250200;23;20084;-86
2023/03/21 10:06:28;;;;;;;48.35;31.40;;;;;;;22.32;60.21;100738.13;6225307;23;20435;-86
2023/03/21 10:09:08;;;;;;;50.97;32.33;;;;;;;22.19;63.02;100738.34;6250757;23;20008;-89
2023/03/21 10:11:40;;;;;;;49.50;32.25;;;;;;;22.76;60.23;100732.16;6251661;23;20011;-87
2023/03/21 10:14:18;;;;;;;65.40;34.33;;;;;;;23.11;56.94;100735.63;6251253;23;20015;-89
2023/03/21 10:16:50;;;;;;;43.72;30.75;;;;;;;23.41;55.97;100731.91;6250678;23;20098;-89
2023/03/21 10:19:18;;;;;;;49.10;32.53;;;;;;;22.95;55.96;100732.84;6250551;23;20015;-91
2023/03/21 10:21:49;;;;;;;51.30;34.05;;;;;;;21.84;60.36;100720.16;6222637;23;20004;-88
2023/03/21 10:24:22;;;;;;;47.03;31.85;;;;;;;22.68;60.01;100721.72;6225175;23;20034;-88
2023/03/21 10:26:50;;;;;;;44.42;30.35;;;;;;;23.13;56.37;100719.97;6223986;23;20446;-87
2023/03/21 10:29:17;;;;;;;47.40;31.02;;;;;;;23.42;56.10;100720.88;6222072;23;20431;-89
2023/03/21 10:31:46;;;;;;;48.58;33.15;;;;;;;22.83;58.63;100713.94;6225392;23;20020;-90
2023/03/21 10:34:30;;;;;;;46.40;33.13;;;;;;;23.40;58.04;100722.97;6227917;23;20077;-89
2023/03/21 10:36:55;;;;;;;44.42;31.77;;;;;;;24.07;54.09;100714.97;6233656;23;20019;-88
2023/03/21 10:39:32;;;;;;;43.25;30.70;;;;;;;24.44;53.55;100712.59;6255811;23;20020;-90
2023/03/21 10:41:58;;;;;;;44.22;31.65;;;;;;;24.30;53.42;100722.13;6223522;23;20047;-86
2023/03/21 10:44:33;;;;;;;42.92;30.30;;;;;;;24.94;50.58;100717.94;6232282;23;20012;-88
2023/03/21 10:47:08;;;;;;;43.80;31.90;;;;;;;24.62;51.57;100721.28;6202387;23;20024;-85
2023/03/21 10:49:36;;;;;;;47.58;32.03;;;;;;;24.18;51.06;100709.53;6248817;23;20012;-87
2023/03/21 10:52:09;;;;;;;47.50;29.90;;;;;;;25.23;49.21;100713.97;6248520;23;20028;-88
2023/03/21 10:54:35;;;;;;;43.92;29.52;;;;;;;24.77;48.80;100715.25;6247326;23;20096;-89
2023/03/21 10:57:14;;;;;;;42.17;28.45;;;;;;;24.38;48.88;100705.47;6248259;23;20374;-89
2023/03/21 10:59:46;;;;;;;40.10;27.92;;;;;;;25.31;47.01;100710.00;6223619;23;20004;-87
2023/03/21 11:02:20;;;;;;;37.55;26.20;;;;;;;25.36;47.62;100708.13;6221747;23;20043;-87
2023/03/21 11:04:45;;;;;;;44.88;30.70;;;;;;;24.75;49.88;100700.31;6248949;23;20012;-88
2023/03/21 11:07:14;;;;;;;40.08;28.67;;;;;;;24.88;49.46;100705.41;6198813;23;20316;-89
2023/03/21 11:10:05;;;;;;;36.42;26.05;;;;;;;24.43;47.67;100700.94;6250859;23;20008;-87
2023/03/21 11:12:37;;;;;;;46.38;27.63;;;;;;;24.01;48.26;100673.47;6202053;23;20465;-90
2023/03/21 11:15:24;;;;;;;46.50;30.08;;;;;;;23.48;51.65;100683.91;6256341;22;20000;-89
2023/03/21 11:17:49;;;;;;;41.85;29.42;;;;;;;25.16;47.38;100687.03;6240915;22;20000;-89
2023/03/21 11:20:18;;;;;;;49.78;29.17;;;;;;;25.51;46.97;100683.94;6221912;22;20004;-89
2023/03/21 11:22:44;;;;;;;42.42;29.88;;;;;;;25.52;47.34;100684.75;6201747;23;20066;-89
2023/03/21 11:25:38;;;;;;;41.05;29.13;;;;;;;25.83;45.02;100685.84;6228886;23;20036;-89
2023/03/21 11:28:16;;;;;;;43.63;28.45;;;;;;;25.35;45.00;100687.53;6220475;23;20027;-86
2023/03/21 11:30:57;;;;;;;44.03;27.75;;;;;;;26.51;41.50;100671.44;6221788;23;20055;-87
2023/03/21 11:33:47;;;;;;;41.20;27.52;;;;;;;27.69;37.20;100683.31;6223431;23;20465;-87
2023/03/21 11:36:15;;;;;;;41.70;26.95;;;;;;;27.32;37.23;100675.31;6248303;23;20091;-88
2023/03/21 11:38:41;;;;;;;39.40;27.35;;;;;;;26.97;37.44;100675.22;6228235;23;20012;-90
2023/03/21 11:41:06;;;;;;;36.08;25.50;;;;;;;26.83;37.35;100663.19;6259805;23;20065;-90
2023/03/21 11:43:37;;;;;;;38.63;25.77;;;;;;;26.45;38.98;100667.06;6223456;23;20011;-88
2023/03/21 11:46:03;;;;;;;37.72;27.13;;;;;;;27.22;37.91;100657.06;6251439;23;20008;-91
2023/03/21 11:48:30;;;;;;;46.63;27.42;;;;;;;27.07;38.58;100659.75;6230165;23;20007;-91
2023/03/21 11:51:11;;;;;;;37.63;25.73;;;;;;;27.72;37.69;100658.25;6205855;23;20027;-90
2023/03/21 11:53:41;;;;;;;42.13;27.17;;;;;;;26.85;38.86;100655.56;6250955;23;20023;-87
2023/03/21 11:56:24;;;;;;;32.80;23.13;;;;;;;26.77;36.80;100654.16;6225067;23;20015;-89
2023/03/21 11:59:11;;;;;;;40.70;23.23;;;;;;;26.40;36.95;100643.38;6253133;23;20036;-89
2023/03/21 12:01:56;;;;;;;31.80;20.20;;;;;;;26.94;35.02;100641.22;6248232;23;20012;-86
2023/03/21 12:04:43;;;;;;;29.63;19.23;;;;;;;26.32;36.19;100632.16;6250203;23;20020;-87
2023/03/21 12:07:35;;;;;;;30.40;20.98;;;;;;;24.73;39.59;100632.78;6203564;23;20008;-90
2023/03/21 12:10:19;;;;;;;32.75;20.42;;;;;;;24.04;40.82;100618.81;6228795;23;20132;-90
2023/03/21 12:13:37;;;;;;;31.02;20.15;;;;;;;22.81;43.91;100613.34;6232397;23;20123;-92
2023/03/21 12:16:33;;;;;;;34.10;20.67;;;;;;;21.86;48.03;100603.91;6189405;23;19996;-90
2023/03/21 12:19:18;;;;;;;33.33;21.63;;;;;;;21.01;51.05;100598.72;6259329;23;20332;-89
2023/03/21 12:21:56;;;;;;;36.08;23.00;;;;;;;20.26;54.69;100602.72;6228995;23;20012;-91
2023/03/21 12:25:00;;;;;;;40.30;24.48;;;;;;;20.14;57.23;100599.16;6257011;23;20466;-90
2023/03/21 12:27:58;;;;;;;38.28;26.17;;;;;;;20.19;59.34;100585.84;6236923;22;20020;-89
2023/03/21 12:30:48;;;;;;;49.15;28.70;;;;;;;19.97;61.75;100588.13;6241709;23;20023;-91
2023/03/21 12:33:37;;;;;;;46.90;28.52;;;;;;;19.66;64.12;100571.22;6258573;23;20072;-92
2023/03/21 12:36:22;;;;;;;41.47;28.02;;;;;;;19.66;64.26;100574.75;6256633;23;20008;-93
2023/03/21 12:39:32;;;;;;;46.35;28.05;;;;;;;19.80;63.54;100570.91;6234357;23;20023;-88
2023/03/21 12:42:41;;;;;;;43.58;28.20;;;;;;;19.75;62.62;100562.69;6233257;23;20008;-91
2023/03/21 12:45:50;;;;;;;40.58;27.13;;;;;;;19.44;63.32;100557.38;6268262;23;20012;-91
2023/03/21 12:48:27;;;;;;;38.40;25.60;;;;;;;19.40;62.61;100548.06;6265156;23;20071;-89
2023/03/21 12:51:24;;;;;;;37.28;26.08;;;;;;;19.32;62.06;100551.03;6236748;23;19996;-89
2023/03/21 12:54:56;;;;;;;35.33;22.88;;;;;;;19.32;61.33;100545.66;6260485;23;20031;-88
2023/03/21 12:57:51;;;;;;;38.95;24.00;;;;;;;19.05;62.87;100543.16;6209833;23;20027;-89
2023/03/21 13:00:47;;;;;;;37.17;24.75;;;;;;;19.23;62.78;100528.13;6237918;23;20040;-90
2023/03/21 13:03:23;;;;;;;34.65;24.17;;;;;;;19.38;60.06;100534.03;6212354;23;20012;-91
2023/03/21 13:08:51;;;;;;;33.33;22.38;;;;;;;19.29;60.27;100524.59;6236238;23;20020;-89
2023/03/21 13:11:24;;;;;;;36.83;25.25;;;;;;;19.29;61.63;100524.59;6235048;23;20032;-88
2023/03/21 13:16:58;;;;;;;38.42;25.88;;;;;;;19.28;63.58;100517.56;6235892;23;20020;-88
2023/03/21 13:19:48;;;;;;;43.95;26.60;;;;;;;18.92;64.80;100507.50;6262676;23;20008;-89
2023/03/21 13:22:24;;;;;;;39.15;26.92;;;;;;;19.03;65.03;100504.91;6237756;23;20019;-90
2023/03/21 13:25:24;;;;;;;42.28;27.42;;;;;;;18.83;65.72;100495.34;6207913;23;20038;-89
2023/03/21 13:30:34;;;;;;;39.75;24.38;;;;;;;19.02;63.66;100479.09;6263185;22;20422;-88
2023/03/21 13:33:22;;;;;;;40.47;27.55;;;;;;;19.26;62.91;100492.75;6263999;23;20019;-88
2023/03/21 13:38:38;;;;;;;39.85;28.23;;;;;;;18.99;65.18;100482.22;6203929;23;20015;-89
2023/03/21 13:41:22;;;;;;;41.78;27.58;;;;;;;18.96;66.04;100474.59;6203651;23;20009;-90
2023/03/21 13:44:03;;;;;;;43.25;26.13;;;;;;;19.02;65.32;100473.72;6254179;22;20400;-92
2023/03/21 13:46:28;;;;;;;38.40;24.80;;;;;;;19.09;63.25;100471.81;6241935;23;20046;-90
2023/03/21 13:49:08;;;;;;;34.03;24.55;;;;;;;19.05;61.27;100470.63;6241843;23;20012;-89
2023/03/21 13:52:10;;;;;;;41.10;23.80;;;;;;;18.99;61.42;100458.03;6265493;23;20008;-90
2023/03/21 13:54:50;;;;;;;40.13;22.92;;;;;;;19.17;61.22;100462.66;6260180;23;20023;-92
2023/03/21 13:57:48;;;;;;;38.15;23.95;;;;;;;19.18;63.33;100458.13;6264883;23;20020;-91
2023/03/21 14:04:12;;;;;;;41.42;26.63;;;;;;;19.01;64.02;100452.47;6242203;22;20000;-89
2023/03/21 14:10:01;;;;;;;40.72;25.70;;;;;;;19.19;64.48;100446.34;6202195;23;20048;-90
2023/03/21 14:12:51;;;;;;;39.25;26.20;;;;;;;18.97;63.15;100444.00;6205765;23;20000;-93
2023/03/21 14:18:21;;;;;;;39.42;25.98;;;;;;;19.12;63.18;100437.50;6205293;23;20032;-90
2023/03/21 14:21:08;;;;;;;39.00;25.50;;;;;;;18.98;63.91;100431.41;6179145;23;20024;-91
2023/03/21 14:24:16;;;;;;;38.88;24.85;;;;;;;19.04;63.37;100431.34;6205378;23;20024;-89
2023/03/21 14:27:10;;;;;;;40.50;23.48;;;;;;;19.16;61.20;100428.75;6223153;22;20293;-87
2023/03/21 14:30:59;;;;;;;36.22;24.52;;;;;;;18.97;61.38;100424.38;6268079;22;20020;-89
2023/03/21 14:34:14;;;;;;;35.85;25.10;;;;;;;18.75;62.44;100421.25;6262213;22;20008;-90
2023/03/21 14:38:02;;;;;;;38.67;25.13;;;;;;;18.56;63.67;100423.03;6265803;22;20024;-89
2023/03/21 14:40:57;;;;;;;39.10;24.38;;;;;;;19.00;61.55;100423.94;6190740;22;20027;-89
2023/03/21 14:43:59;;;;;;;39.47;26.17;;;;;;;18.99;61.46;100415.06;6265546;23;20015;-89
2023/03/21 14:47:10;;;;;;;36.58;25.20;;;;;;;18.96;61.79;100410.13;6260470;23;20015;-87
2023/03/21 14:49:57;;;;;;;41.72;26.50;;;;;;;18.95;62.14;100410.38;6264373;23;20079;-88
2023/03/21 14:53:32;;;;;;;41.70;26.08;;;;;;;19.14;60.58;100397.78;6267802;22;20034;-87
2023/03/21 14:59:02;;;;;;;42.28;26.02;;;;;;;18.90;63.37;100402.13;6233082;22;20106;-90
2023/03/21 15:02:15;;;;;;;37.28;24.35;;;;;;;18.88;62.85;100399.69;6240263;23;20000;-89
2023/03/21 15:04:51;;;;;;;42.13;23.70;;;;;;;19.01;59.92;100401.44;6144207;23;20049;-90
2023/03/21 15:07:35;;;;;;;35.30;23.80;;;;;;;19.11;59.80;100393.69;6225803;22;20043;-91
2023/03/21 15:10:20;;;;;;;36.58;24.48;;;;;;;19.23;58.71;100401.84;6239023;23;20015;-90
2023/03/21 15:12:59;;;;;;;37.47;23.58;;;;;;;18.85;60.35;100392.06;6239598;23;20012;-92
2023/03/21 15:15:27;;;;;;;44.13;25.80;;;;;;;18.81;61.17;100390.84;6252610;23;20020;-89
2023/03/21 15:17:55;;;;;;;36.85;24.10;;;;;;;18.71;62.60;100385.13;6250966;23;20035;-92
2023/03/21 15:20:23;;;;;;;44.22;24.25;;;;;;;18.94;61.45;100387.22;6258515;23;20000;-89
2023/03/21 15:22:54;;;;;;;36.72;24.75;;;;;;;18.77;61.70;100381.56;6264333;23;20016;-91
2023/03/21 15:25:31;;;;;;;35.33;22.88;;;;;;;18.64;62.77;100381.69;6205876;23;20023;-92
2023/03/21 15:28:02;;;;;;;36.83;24.60;;;;;;;18.71;61.53;100379.78;6232054;23;20019;-88
2023/03/21 15:30:30;;;;;;;36.13;24.38;;;;;;;18.75;61.51;100382.84;6265882;23;20094;-89
2023/03/21 15:32:58;;;;;;;36.90;22.55;;;;;;;18.85;61.65;100373.25;6215655;22;20026;-90
2023/03/21 15:35:34;;;;;;;36.53;23.52;;;;;;;19.02;60.64;100374.31;6243993;22;20012;-90
2023/03/21 15:38:00;;;;;;;36.70;23.95;;;;;;;18.81;61.54;100366.69;6243274;23;20378;-89
2023/03/21 15:40:45;;;;;;;37.20;23.17;;;;;;;18.89;60.15;100374.44;6245238;23;20019;-89
2023/03/21 15:43:13;;;;;;;33.75;21.83;;;;;;;19.05;59.47;100367.72;6237028;23;20016;-90
2023/03/21 15:46:11;;;;;;;37.17;23.33;;;;;;;19.01;59.08;100378.06;6262568;23;20008;-91
2023/03/21 15:48:38;;;;;;;36.50;23.65;;;;;;;18.95;59.53;100373.59;6258983;23;20008;-90
2023/03/21 15:51:21;;;;;;;35.33;23.15;;;;;;;18.79;60.43;100370.63;6206584;23;20075;-90
2023/03/21 15:53:47;;;;;;;37.80;24.08;;;;;;;18.67;61.31;100369.69;6256387;23;20008;-91
2023/03/21 15:56:15;;;;;;;34.50;23.77;;;;;;;18.46;62.80;100365.47;6203897;23;20386;-90
2023/03/21 15:58:44;;;;;;;36.63;23.75;;;;;;;18.57;61.57;100368.31;6229591;23;20012;-89
2023/03/21 16:01:16;;;;;;;37.25;23.05;;;;;;;18.61;61.39;100370.56;6254950;23;20012;-92
2023/03/21 16:03:56;;;;;;;35.25;24.05;;;;;;;18.61;63.27;100363.31;6231774;23;20083;-91
2023/03/21 16:06:29;;;;;;;35.40;24.77;;;;;;;18.47;63.79;100361.75;6234785;23;20071;-90
2023/03/21 16:09:13;;;;;;;38.08;24.77;;;;;;;18.35;64.91;100358.94;6177728;23;20058;-88
2023/03/21 16:11:55;;;;;;;39.17;25.92;;;;;;;18.38;65.33;100355.00;6249347;23;20063;-88
2023/03/21 16:14:22;;;;;;;39.53;25.38;;;;;;;18.34;65.41;100356.47;6245566;23;20665;-88
2023/03/21 16:16:49;;;;;;;39.78;24.58;;;;;;;18.33;65.65;100357.50;6216724;23;20074;-89
2023/03/21 16:19:16;;;;;;;39.95;23.40;;;;;;;18.25;66.05;100363.13;6243318;23;20071;-89
2023/03/21 16:21:42;;;;;;;41.17;24.30;;;;;;;18.17;67.05;100360.69;6243613;23;20012;-87
2023/03/21 16:24:09;;;;;;;37.20;22.10;;;;;;;18.26;66.27;100362.09;6243531;23;20470;-92
2023/03/21 16:26:40;;;;;;;35.92;23.42;;;;;;;18.23;67.13;100367.91;6197460;23;20013;-87
2023/03/21 16:29:07;;;;;;;36.22;24.25;;;;;;;18.33;66.02;100365.53;6252674;23;20012;-89
2023/03/21 16:31:35;;;;;;;36.20;23.73;;;;;;;18.24;66.43;100364.16;6252428;23;20011;-91
2023/03/21 16:34:03;;;;;;;39.72;25.30;;;;;;;18.24;66.66;100369.53;6258101;23;20019;-90
2023/03/21 16:36:35;;;;;;;35.72;23.33;;;;;;;18.32;65.84;100372.78;6226496;23;20039;-86
2023/03/21 16:39:04;;;;;;;38.00;24.83;;;;;;;18.24;65.59;100369.53;6251253;23;20011;-89
2023/03/21 16:41:29;;;;;;;39.05;25.23;;;;;;;18.13;66.50;100373.72;6250699;23;20532;-88
2023/03/21 16:43:55;;;;;;;39.63;24.48;;;;;;;18.20;65.42;100368.31;6223623;23;20015;-88
2023/03/21 16:46:25;;;;;;;33.78;22.75;;;;;;;18.24;66.35;100369.53;6251685;23;20015;-88
2023/03/21 16:48:53;;;;;;;35.85;24.40;;;;;;;18.28;65.36;100376.94;6225928;23;20004;-88
2023/03/21 16:51:24;;;;;;;41.17;23.67;;;;;;;18.40;65.36;100372.53;6224256;23;20008;-89
2023/03/21 16:53:51;;;;;;;34.25;23.27;;;;;;;18.36;65.89;100378.56;6222871;23;20014;-88
2023/03/21 16:56:21;;;;;;;36.25;24.25;;;;;;;18.30;65.35;100377.53;6249290;23;20008;-89
2023/03/21 16:58:46;;;;;;;35.20;23.83;;;;;;;18.41;65.01;100373.34;6221791;23;20018;-88
2023/03/21 17:01:17;;;;;;;42.20;24.58;;;;;;;18.39;64.73;100373.56;6249544;23;20008;-86
2023/03/21 17:03:44;;;;;;;39.60;24.25;;;;;;;18.32;65.65;100371.97;6251415;23;20039;-87
2023/03/21 17:06:18;;;;;;;41.42;23.83;;;;;;;18.18;67.53;100373.91;6199152;23;20394;-89
2023/03/21 17:08:44;;;;;;;33.63;22.70;;;;;;;18.39;66.64;100372.75;6202284;23;20051;-89
2023/03/21 17:11:15;;;;;;;46.60;25.92;;;;;;;18.45;66.20;100371.88;6250639;23;20317;-88
2023/03/21 17:13:42;;;;;;;39.45;24.17;;;;;;;18.47;66.51;100369.78;6251614;23;20080;-89
2023/03/21 17:16:22;;;;;;;51.58;26.73;;;;;;;18.39;67.33;100367.38;6251952;23;20012;-86
2023/03/21 17:18:49;;;;;;;39.70;24.10;;;;;;;18.41;67.39;100370.66;6251985;23;20015;-90
2023/03/21 17:21:17;;;;;;;50.28;27.48;;;;;;;18.45;66.88;100372.72;6198803;23;20017;-88
2023/03/21 17:23:43;;;;;;;51.13;27.60;;;;;;;18.36;67.84;100373.19;6223329;23;20016;-90
2023/03/21 17:26:12;;;;;;;39.85;25.25;;;;;;;18.36;68.40;100368.63;6224106;23;20435;-87
2023/03/21 17:28:39;;;;;;;62.15;30.15;;;;;;;18.30;69.65;100369.50;6253299;23;20000;-91
2023/03/21 17:31:12;;;;;;;54.72;29.80;;;;;;;18.25;70.63;100368.50;6253061;23;20335;-89
2023/03/21 17:33:37;;;;;;;;;;;;;;;18.19;71.14;100366.69;6252821;23;20099;-90
2023/03/21 17:36:04;;;;;;;49.58;30.25;;;;;;;18.17;71.45;100363.38;6227842;23;19916;-90
2023/03/21 17:38:31;;;;;;;43.55;25.75;;;;;;;18.31;68.81;100364.94;6230279;23;20012;-91
2023/03/21 17:40:59;;;;;;;45.97;27.85;;;;;;;18.10;68.01;100374.13;6202266;23;20000;-89
2023/03/21 17:43:25;;;;;;;42.05;26.10;;;;;;;18.26;67.15;100372.84;6259435;23;20013;-91
2023/03/21 17:45:54;;;;;;;40.75;25.92;;;;;;;18.24;66.96;100375.72;6226135;23;20047;-90
2023/03/21 17:48:22;;;;;;;41.47;27.63;;;;;;;18.15;67.29;100370.81;6225448;23;20316;-89
2023/03/21 17:50:49;;;;;;;42.53;28.15;;;;;;;17.89;70.36;100364.56;6225084;23;20012;-91
2023/03/21 17:53:15;;;;;;;43.67;28.23;;;;;;;17.78;70.13;100357.19;6252406;23;20134;-89
2023/03/21 17:55:40;;;;;;;47.42;27.98;;;;;;;17.81;69.43;100359.44;6241544;23;20004;-91
2023/03/21 17:58:06;;;;;;;39.58;27.15;;;;;;;17.93;69.94;100363.09;6253893;23;20518;-90
2023/03/21 18:00:31;;;;;;;44.08;28.02;;;;;;;17.92;73.05;100357.94;6251074;23;20088;-90
2023/03/21 18:02:58;;;;;;;47.20;28.45;;;;;;;17.68;75.68;100370.22;6253588;23;20012;-88
2023/03/21 18:05:38;;;;;;;44.67;28.08;;;;;;;17.47;79.79;100360.56;6231533;23;20031;-91
2023/03/21 18:08:19;;;;;;;44.08;26.70;;;;;;;17.42;80.39;100364.91;6237169;23;20080;-89
2023/03/21 18:10:47;;;;;;;46.53;28.33;;;;;;;16.96;86.65;100365.81;6262417;23;20008;-90
2023/03/21 18:13:13;;;;;;;49.08;29.02;;;;;;;16.90;89.95;100363.16;6207764;23;20008;-91
2023/03/21 18:15:42;;;;;;;49.17;28.17;;;;;;;16.70;92.90;100365.00;6215986;23;20054;-92
2023/03/21 18:18:10;;;;;;;42.22;26.48;;;;;;;16.56;94.71;100366.84;6215891;23;20027;-90
2023/03/21 18:20:40;;;;;;;48.97;27.77;;;;;;;16.30;100.00;100369.44;6259455;23;20023;-89
2023/03/21 18:23:05;;;;;;;45.08;26.55;;;;;;;16.60;96.93;100373.44;6203775;23;20020;-90
2023/03/21 18:25:32;;;;;;;41.50;26.98;;;;;;;16.68;97.89;100377.75;6258024;23;20016;-89
2023/03/21 18:27:58;;;;;;;42.40;26.50;;;;;;;16.76;97.79;100380.22;6262627;22;20008;-92
2023/03/21 18:30:25;;;;;;;38.42;25.23;;;;;;;16.87;96.29;100382.31;6221224;23;20024;-90
2023/03/21 18:32:50;;;;;;;49.05;28.92;;;;;;;16.42;100.00;100383.84;6211124;23;20000;-91
2023/03/21 18:35:21;;;;;;;44.33;27.45;;;;;;;16.22;100.00;100381.16;6239506;23;20012;-91
2023/03/21 18:37:47;;;;;;;50.13;26.83;;;;;;;16.10;100.00;100379.25;6210352;23;20008;-91
2023/03/21 18:40:13;;;;;;;38.72;25.05;;;;;;;16.26;100.00;100381.56;6204148;23;20019;-90
2023/03/21 18:42:45;;;;;;;51.60;29.40;;;;;;;16.03;100.00;100384.59;6207606;23;20008;-92
2023/03/21 18:45:37;;;;;;;47.33;27.58;;;;;;;15.75;100.00;100383.84;6235800;23;20039;-91
2023/03/21 18:48:23;;;;;;;58.20;31.57;;;;;;;15.94;100.00;100380.47;6216058;23;20034;-93
2023/03/21 18:50:56;;;;;;;65.10;33.72;;;;;;;15.77;100.00;100387.16;6250821;23;20019;-90
2023/03/21 18:53:22;;;;;;;55.20;35.13;;;;;;;15.78;100.00;100384.28;6227049;23;20394;-88
2023/03/21 18:55:53;;;;;;;55.95;33.42;;;;;;;15.68;100.00;100385.66;6260702;23;20008;-90
2023/03/21 18:58:45;;;;;;;57.67;32.40;;;;;;;15.32;100.00;100391.19;6261578;23;20064;-92
2023/03/21 19:01:11;;;;;;;56.67;32.15;;;;;;;15.16;100.00;100386.16;6214113;23;20027;-90
2023/03/21 19:09:35;;;;;;;63.95;33.50;;;;;;;15.10;100.00;100402.94;6266296;22;20088;-90
2023/03/21 19:12:11;;;;;;;51.80;33.07;;;;;;;15.43;100.00;100410.16;6243041;23;20060;-91
2023/03/21 19:14:41;;;;;;;60.90;32.10;;;;;;;15.57;100.00;100395.09;6258883;23;20023;-88
2023/03/21 19:17:14;;;;;;;62.17;32.58;;;;;;;15.49;100.00;100403.25;6264258;23;20055;-89
2023/03/21 19:19:52;;;;;;;55.35;32.38;;;;;;;15.41;100.00;100406.06;6251213;23;20386;-91
2023/03/21 19:25:17;;;;;;;52.33;33.40;;;;;;;15.18;100.00;100410.84;6255446;23;20019;-90
2023/03/21 19:30:47;;;;;;;52.20;33.88;;;;;;;15.14;100.00;100404.22;6202094;23;20065;-89
2023/03/21 19:33:13;;;;;;;51.45;32.33;;;;;;;15.36;100.00;100405.81;6182766;23;20013;-91
2023/03/21 19:43:51;;;;;;;49.33;32.08;;;;;;;15.12;100.00;100416.91;6208995;23;20008;-91
2023/03/21 19:46:25;;;;;;;59.42;33.97;;;;;;;14.70;100.00;100410.63;6206098;23;20065;-92
2023/03/21 19:49:09;;;;;;;56.35;33.33;;;;;;;14.65;100.00;100405.03;6183560;23;20013;-89
2023/03/21 19:54:23;;;;;;;57.10;33.33;;;;;;;14.42;100.00;100410.56;6239629;22;20024;-90
2023/03/21 20:06:13;;;;;;;55.92;34.22;;;;;;;14.60;100.00;100410.13;6267189;23;20061;-90
2023/03/21 20:08:42;;;;;;;55.70;32.78;;;;;;;14.80;100.00;100421.81;6244657;22;19996;-89
2023/03/21 20:11:18;;;;;;;50.60;31.77;;;;;;;14.92;100.00;100417.59;6256574;23;20008;-91
2023/03/21 20:14:14;;;;;;;50.00;32.53;;;;;;;14.82;100.00;100422.44;6246033;22;20020;-93
2023/03/21 20:19:56;;;;;;;49.55;33.13;;;;;;;14.70;100.00;100423.97;6213355;23;20012;-89
2023/03/21 20:22:26;;;;;;;53.92;32.47;;;;;;;14.73;100.00;100417.41;6179895;23;20079;-91
2023/03/21 20:30:51;;;;;;;49.92;31.60;;;;;;;14.60;100.00;100426.13;6237359;22;20012;-90
2023/03/21 20:33:34;;;;;;;56.13;31.35;;;;;;;14.89;100.00;100425.16;6222570;23;20023;-92
2023/03/21 20:36:16;;;;;;;52.65;31.38;;;;;;;14.96;100.00;100418.88;6233072;23;19996;-92
2023/03/21 20:39:04;;;;;;;50.00;30.67;;;;;;;14.93;100.00;100424.59;6229618;23;20008;-91
2023/03/21 20:41:30;;;;;;;41.77;22.83;;;;;;;14.75;100.00;100421.53;6233194;23;20055;-91
2023/03/21 20:44:25;;;;;;;46.30;30.30;;;;;;;14.75;100.00;100426.88;6240082;23;20016;-90
2023/03/21 20:47:26;;;;;;;61.65;31.13;;;;;;;14.88;100.00;100421.66;6203373;23;20043;-92
2023/03/21 20:49:57;;;;;;;52.50;33.97;;;;;;;14.62;100.00;100423.25;6221018;23;20364;-89
2023/03/21 21:05:53;;;;;;;38.65;22.95;;;;;;;14.62;100.00;100433.94;6269956;22;20008;-91
2023/03/21 21:11:44;;;;;;;63.40;36.03;;;;;;;13.98;100.00;100434.66;6261455;22;20027;-90
2023/03/21 21:22:57;;;;;;;51.97;32.75;;;;;;;13.98;100.00;100445.31;6271558;22;20019;-91
2023/03/21 21:25:43;;;;;;;52.17;31.98;;;;;;;14.15;100.00;100440.56;6246212;23;20020;-91
2023/03/21 21:28:22;;;;;;;54.45;31.77;;;;;;;13.99;100.00;100435.44;6218504;23;20016;-89